Chippewa Valley Regional Airport
KEAU : rendu visible

Aérodrome :











RETROUVEZ-NOUS SUR...

 
LOGIN :

S'inscrire | Disclaimer

   EN    FR    IT 

 









Légende :    VFR   VFR Marginal   IFR   IFR Intensif   IFR Très Intensif
Visi : 
Plafond : 
>= 8 km
>= 3000ft
5 à 8 km
1000 à 3000 ft
1500m à 5 km
500 à 1000 ft
800 à 1500m
200 à 500 ft
< 800m
< 200 ft
Symboles :   Orages  Brouillard  Fortes neiges  Fortes précipitations  Vent > 20 kt






- Altitude de l'aérodrome : 913 ft
- Code IATA : EAU


KEAU - Chippewa Valley Regional

DERNIER METAR :
  • 191456Z 14004KT 2 1/2SM BR OVC004 01/M01 A2975 RMK AO2 SLP083 I1001 I3002 T00061006 51008

METARs EXPIRÉS :
  • 191444Z 14004KT 2SM BR OVC004 01/M01 A2975 RMK AO2 I1001 T00061011
  • 191425Z 00000KT 1 3/4SM BR OVC004 01/M01 A2974 RMK AO2 I1000 T00061011
  • 191356Z 00000KT 2 1/2SM BR OVC004 01/M01 A2974 RMK AO2 SLP080 T00061011
  • 191351Z 00000KT 2SM BR OVC004 01/M01 A2974 RMK AO2
  • 191256Z 00000KT 2SM BR OVC004 01/M01 A2972 RMK AO2 SLP074 I1001 T00061011

TAF KEAU
Valide du 19 à 12h jusqu'au 20 à 12h UTC


191134Z 1912/2012 00000KT 2SM BR VCSH OVC004
FM191900 00000KT P6SM OVC007
FM200000 00000KT P6SM OVC100
FM200200 00000KT P6SM OVC005
FM200600 00000KT 4SM BR OVC007
FM201100 00000KT 1SM BR OVC007



MET'MAP, la Météo Aéronautique d'un coup d'oeil ! - Copyright ORBIFLY Décembre 2007 - Disclaimer

ORBIFLY MET'MAP TEAM :

Programmation & Développement : Alexandra Zaïnal
Conception & Développement : Baudouin d'Aumeries
Co-Programmation & Développement : Marc-Olivier Méhu
Soutien technique & logistique : Manuel Goepfert

Contact : metmap@orbifly.com




SOURCES & CREDITS :

   NOAA       Earth
Advisory